Countyline, Oklahoma
Current Conditions -  °F | °C
As of 2:35 PM on Monday 22 Dec 2014 (Local Time) from KDUC Reporting Station
Clear Clear  
Wind Chill: 59°   Ceiling: Unl
Heat Index: 59°   Visibility: NA
Dew Point: 41°   Wind: 15mph
Humidity: 51%   Direction: 340°NNW
Pressure: 29.59"   Gusts: NA
Location:  34.45°N, 97.56°W
Report Text: KDUC 222035Z AUTO 34013KT CLR 15/05 A2959 RMK AO2 PWINO
Loading
Personal Weather Stations






























Interactive Weather Map New forecast layout! Learn more

10-Day Weather Forecast

Advertisements
Track Severe Weather on mobile